Capitol Logistics 944


EHAM
Schiphol International Airport
Amsterdam, NL
LPPT
Aeroporto da Portela de Sacavem
Lisbon, PT

Activity Log

Date Flight Route Aircraft Duration
10/24/2019 CPX944 Not Available B738 2h 50m

Route Details

Aircraft Information
Primary: Boeing 737-800BCF
Backup: Not Available
Route Data
Distance: 943nm
Sched. Duration: 2h 20m
Avg. Duration: 2h 50m (+30m)
Times Flown: 1
Recm'd Route: Not Available
Planned Altitude: 36,000ft
Origin Wx: EHAM 231725Z 27011KT 8000 -SHRA FEW011 SCT015TCU BKN028 03/02 Q0993 NOSIG
Dest. Wx: LPPT 231730Z 26014G24KT 5000 -DZ SCT008 BKN010 15/14 Q1016 WS R21
Notes:

Financial History
Total Freight: 44,352lbs
Average Load: 44,352lbs/flt
Fuel Used: 15,317lbs
Avg. Fuel Used: 15,317lbs/flt
Fuel Expense: $12,254
Avg. Fuel Expense: $12,254
Avg. Fuel Cost: $0.80/lbs
Total Gross Income: $88,704
Pilot Pay: $229
Total Expenses: $9,632
Total Revenue: $66,141
Average Revenue: $88,704.00